createdAt,value
2023-05-10T00:00:30.329Z,6.60
2023-05-10T00:03:30.497Z,6.62
2023-05-10T00:06:30.250Z,6.63
2023-05-10T00:09:30.300Z,6.64
2023-05-10T00:12:30.317Z,6.63
2023-05-10T00:15:30.258Z,6.65
2023-05-10T00:18:30.308Z,6.68
2023-05-10T00:21:30.269Z,6.70
2023-05-10T00:24:32.312Z,6.71
2023-05-10T00:27:32.319Z,6.74
2023-05-10T00:30:32.359Z,6.76
2023-05-10T00:33:32.470Z,6.78
2023-05-10T00:36:32.470Z,6.79
2023-05-10T00:39:34.414Z,6.81
2023-05-10T00:42:34.367Z,6.83
2023-05-10T00:45:37.337Z,6.81
2023-05-10T00:48:37.378Z,6.78
2023-05-10T00:51:38.424Z,6.76
2023-05-10T00:54:38.435Z,6.75
2023-05-10T00:57:39.438Z,6.76
2023-05-10T01:00:39.395Z,6.78
2023-05-10T01:03:39.433Z,6.79
2023-05-10T01:06:39.315Z,6.77
2023-05-10T01:09:39.379Z,6.75
2023-05-10T01:12:39.379Z,6.75
2023-05-10T01:15:39.458Z,6.73
2023-05-10T01:18:40.532Z,6.72
2023-05-10T01:21:47.429Z,6.69
2023-05-10T01:24:59.505Z,6.68
2023-05-10T01:28:20.449Z,6.67
2023-05-10T01:31:32.537Z,6.66
2023-05-10T01:34:36.426Z,6.64
2023-05-10T01:37:39.450Z,6.64
2023-05-10T01:41:02.427Z,6.64
2023-05-10T01:44:07.986Z,6.64
2023-05-10T01:47:15.451Z,6.61
2023-05-10T01:50:18.663Z,6.61
2023-05-10T01:53:22.474Z,6.58
2023-05-10T01:56:22.416Z,6.57
2023-05-10T01:59:26.444Z,6.57
2023-05-10T02:02:27.488Z,6.55
2023-05-10T02:05:29.419Z,6.55
2023-05-10T02:08:30.500Z,6.55
2023-05-10T02:11:30.459Z,6.54
2023-05-10T02:14:37.477Z,6.52
2023-05-10T02:17:37.555Z,6.52
2023-05-10T02:20:40.551Z,6.53
2023-05-10T02:23:40.487Z,6.55
2023-05-10T02:26:40.494Z,6.58
2023-05-10T02:29:41.537Z,6.60
2023-05-10T02:32:42.543Z,6.62
2023-05-10T02:35:42.549Z,6.66
2023-05-10T02:38:42.541Z,6.70
2023-05-10T02:41:43.553Z,6.74
2023-05-10T02:44:43.551Z,6.79
2023-05-10T02:47:43.604Z,6.83
2023-05-10T02:50:43.652Z,6.87
2023-05-10T02:53:46.541Z,6.90
2023-05-10T02:56:47.742Z,6.94
2023-05-10T02:59:47.550Z,6.94
2023-05-10T03:02:47.658Z,6.95
2023-05-10T03:05:47.660Z,6.98
2023-05-10T03:08:47.545Z,7.04
2023-05-10T03:12:05.584Z,7.08
2023-05-10T03:15:06.625Z,7.10
2023-05-10T03:18:13.596Z,7.14
2023-05-10T03:21:13.658Z,7.24
2023-05-10T03:24:22.572Z,7.33
2023-05-10T03:27:22.610Z,7.42
2023-05-10T03:30:22.635Z,7.49
2023-05-10T03:33:22.668Z,7.54
2023-05-10T03:36:23.603Z,7.61
2023-05-10T03:39:23.717Z,7.68
2023-05-10T03:42:24.612Z,7.75
2023-05-10T03:45:24.630Z,7.79
2023-05-10T03:48:24.645Z,7.84
2023-05-10T03:51:24.698Z,7.87
2023-05-10T03:54:24.645Z,7.90
2023-05-10T03:57:25.876Z,7.98
2023-05-10T04:00:25.668Z,8.05
2023-05-10T04:03:27.740Z,8.08
2023-05-10T04:06:27.722Z,8.16
2023-05-10T04:09:27.654Z,8.27
2023-05-10T04:12:27.987Z,8.37
2023-05-10T04:15:27.686Z,8.47
2023-05-10T04:18:34.765Z,8.58
2023-05-10T04:21:34.737Z,8.69
2023-05-10T04:24:34.698Z,8.74
2023-05-10T04:27:34.721Z,8.76
2023-05-10T04:30:35.770Z,8.77
2023-05-10T04:33:35.745Z,8.74
2023-05-10T04:36:36.736Z,8.72
2023-05-10T04:39:36.723Z,8.75
2023-05-10T04:42:37.722Z,8.77
2023-05-10T04:45:38.774Z,8.77
2023-05-10T04:48:38.740Z,8.77
2023-05-10T04:51:38.762Z,8.81
2023-05-10T04:54:38.734Z,8.85
2023-05-10T04:57:38.742Z,8.91
2023-05-10T05:00:38.799Z,8.99
2023-05-10T05:04:07.613Z,9.09
2023-05-10T05:07:01.767Z,9.36
2023-05-10T05:10:01.746Z,9.61
2023-05-10T05:13:01.879Z,9.97
2023-05-10T05:16:01.812Z,10.38
2023-05-10T05:19:01.836Z,10.74
2023-05-10T05:22:01.849Z,11.09
2023-05-10T05:25:01.790Z,11.44
2023-05-10T05:28:01.764Z,11.75
2023-05-10T05:31:01.758Z,12.10
2023-05-10T05:34:01.816Z,12.35
2023-05-10T05:37:01.808Z,12.44
2023-05-10T05:40:01.834Z,12.68
2023-05-10T05:43:01.980Z,12.98
2023-05-10T05:46:02.157Z,12.88
2023-05-10T05:49:02.981Z,12.67
2023-05-10T05:52:02.805Z,12.81
2023-05-10T05:55:03.957Z,12.99
2023-05-10T05:58:04.010Z,12.97
2023-05-10T06:01:03.882Z,12.92
2023-05-10T06:04:03.955Z,12.96
2023-05-10T06:07:03.906Z,13.06
2023-05-10T06:10:03.899Z,13.23
2023-05-10T06:13:05.864Z,13.61
2023-05-10T06:16:06.026Z,14.09
2023-05-10T06:19:06.109Z,14.50
2023-05-10T06:22:05.939Z,14.68
2023-05-10T06:25:05.885Z,14.70
2023-05-10T06:28:06.947Z,14.71
2023-05-10T06:31:08.906Z,14.88
2023-05-10T06:34:11.180Z,15.41
2023-05-10T06:37:11.992Z,15.80
2023-05-10T06:40:13.307Z,16.08
2023-05-10T06:43:13.962Z,16.43
2023-05-10T06:46:14.012Z,16.59
2023-05-10T06:49:14.144Z,16.85
2023-05-10T06:52:14.946Z,17.26
2023-05-10T06:55:16.344Z,17.66
2023-05-10T06:58:18.025Z,18.17
2023-05-10T07:01:18.222Z,18.62
2023-05-10T07:04:19.062Z,19.09
2023-05-10T07:07:19.001Z,19.66
2023-05-10T07:10:19.979Z,20.05
2023-05-10T07:13:20.183Z,20.42
2023-05-10T07:16:20.053Z,20.75
2023-05-10T07:19:20.040Z,21.13
2023-05-10T07:22:20.017Z,21.43
2023-05-10T07:25:20.040Z,21.61
2023-05-10T07:28:21.045Z,21.48
2023-05-10T07:31:21.072Z,20.97
2023-05-10T07:34:21.039Z,20.37
2023-05-10T07:37:22.086Z,20.15
2023-05-10T07:40:22.237Z,20.08
2023-05-10T07:43:23.656Z,20.02
2023-05-10T07:46:27.114Z,19.75
2023-05-10T07:49:27.243Z,19.33
2023-05-10T07:52:27.146Z,19.10
2023-05-10T07:55:28.303Z,19.03
2023-05-10T07:58:29.198Z,18.68
2023-05-10T08:01:30.118Z,18.56
2023-05-10T08:04:30.144Z,18.99
2023-05-10T08:07:31.286Z,19.21
2023-05-10T08:10:31.152Z,19.30
2023-05-10T08:13:32.161Z,19.29
2023-05-10T08:16:32.200Z,19.09
2023-05-10T08:19:32.173Z,18.70
2023-05-10T08:22:33.731Z,18.49
2023-05-10T08:25:34.198Z,18.70
2023-05-10T08:28:34.284Z,19.31
2023-05-10T08:31:34.487Z,19.91
2023-05-10T08:34:34.342Z,20.29
2023-05-10T08:37:37.282Z,20.60
2023-05-10T08:40:38.168Z,21.12
2023-05-10T08:43:42.248Z,21.47
2023-05-10T08:46:45.462Z,21.70
2023-05-10T08:49:45.590Z,22.22
2023-05-10T08:52:47.186Z,22.67
2023-05-10T08:55:47.268Z,22.70
2023-05-10T08:58:47.226Z,22.40
2023-05-10T09:01:47.196Z,21.94
2023-05-10T09:04:47.327Z,21.11
2023-05-10T09:07:48.206Z,20.34
2023-05-10T09:10:49.271Z,19.77
2023-05-10T09:13:49.198Z,19.47
2023-05-10T09:16:50.334Z,19.63
2023-05-10T09:19:50.325Z,20.26
2023-05-10T09:22:51.401Z,20.89
2023-05-10T09:25:51.224Z,21.04
2023-05-10T09:29:04.372Z,20.79
2023-05-10T09:32:04.283Z,20.16
2023-05-10T09:35:04.433Z,19.47
2023-05-10T09:38:04.297Z,18.59
2023-05-10T09:41:09.313Z,17.69
2023-05-10T09:44:09.360Z,17.15
2023-05-10T09:47:11.468Z,16.78
2023-05-10T09:50:11.329Z,16.40
2023-05-10T09:53:11.287Z,16.08
2023-05-10T09:56:12.434Z,16.11
2023-05-10T09:59:18.719Z,16.10
2023-05-10T10:02:19.272Z,16.10
2023-05-10T10:05:20.264Z,16.14
2023-05-10T10:08:20.414Z,16.15
2023-05-10T10:11:20.392Z,16.16
2023-05-10T10:14:20.344Z,16.22
2023-05-10T10:17:20.334Z,16.24
2023-05-10T10:20:20.511Z,16.15
2023-05-10T10:23:22.324Z,15.84
2023-05-10T10:26:22.340Z,15.37
2023-05-10T10:29:45.406Z,14.96
2023-05-10T10:33:10.236Z,14.70
2023-05-10T10:36:17.434Z,14.59
2023-05-10T10:39:19.324Z,14.56
2023-05-10T10:42:19.372Z,14.52
2023-05-10T10:45:25.390Z,14.43
2023-05-10T10:48:33.418Z,14.31
2023-05-10T10:51:33.408Z,14.26
2023-05-10T10:54:42.471Z,14.23
2023-05-10T10:57:42.502Z,14.15
2023-05-10T11:00:46.420Z,14.18
2023-05-10T11:03:47.550Z,14.27
2023-05-10T11:06:47.425Z,14.36
2023-05-10T11:09:53.459Z,14.48
2023-05-10T11:13:07.434Z,14.65
2023-05-10T11:16:07.520Z,14.87
2023-05-10T11:19:08.608Z,15.04
2023-05-10T11:22:17.627Z,15.12
2023-05-10T11:25:17.761Z,15.10
2023-05-10T11:28:28.876Z,15.21
2023-05-10T11:31:38.264Z,15.43
2023-05-10T11:35:09.913Z,15.62
2023-05-10T11:38:24.926Z,15.82
2023-05-10T11:41:29.486Z,15.99
2023-05-10T11:44:29.583Z,16.05
2023-05-10T11:47:30.580Z,16.26
2023-05-10T11:50:30.506Z,16.42
2023-05-10T11:53:30.517Z,16.72
2023-05-10T11:56:30.551Z,16.87
2023-05-10T11:59:33.031Z,16.88
2023-05-10T12:02:34.479Z,17.04
2023-05-10T12:05:34.611Z,17.22
2023-05-10T12:08:34.482Z,17.44
2023-05-10T12:11:34.601Z,17.41
2023-05-10T12:14:35.789Z,17.35
2023-05-10T12:17:35.628Z,17.25
2023-05-10T12:20:37.557Z,17.30
2023-05-10T12:23:37.585Z,17.43
2023-05-10T12:26:30.874Z,17.46
2023-05-10T12:29:32.848Z,17.24
2023-05-10T12:32:33.965Z,16.99
2023-05-10T12:35:34.751Z,16.91
2023-05-10T12:38:54.607Z,16.89
2023-05-10T12:41:54.639Z,16.57
2023-05-10T12:44:54.595Z,16.23
2023-05-10T12:47:54.605Z,16.12
2023-05-10T12:50:54.641Z,16.01
2023-05-10T12:53:54.764Z,15.88
2023-05-10T12:56:54.645Z,15.74
2023-05-10T12:59:54.768Z,15.56
2023-05-10T13:02:57.789Z,15.46
2023-05-10T13:05:57.770Z,15.43
2023-05-10T13:08:57.681Z,15.38
2023-05-10T13:12:01.044Z,15.31
2023-05-10T13:15:01.774Z,15.23
2023-05-10T13:18:02.832Z,15.25
2023-05-10T13:21:02.661Z,15.33
2023-05-10T13:24:02.674Z,15.52
2023-05-10T13:27:02.863Z,15.94
2023-05-10T13:30:02.755Z,16.39
2023-05-10T13:33:02.813Z,16.56
2023-05-10T13:36:03.703Z,16.56
2023-05-10T13:39:03.754Z,16.52
2023-05-10T13:42:04.761Z,16.43
2023-05-10T13:45:04.855Z,16.41
2023-05-10T13:48:04.792Z,16.37
2023-05-10T13:51:04.837Z,16.29
2023-05-10T13:54:04.734Z,16.21
2023-05-10T13:57:06.847Z,16.23
2023-05-10T14:00:06.747Z,16.17
2023-05-10T14:03:06.962Z,16.33
2023-05-10T14:06:07.082Z,16.52
2023-05-10T14:09:06.716Z,16.61
2023-05-10T14:12:06.786Z,16.60
2023-05-10T14:15:07.847Z,16.57
2023-05-10T14:18:07.961Z,16.48
2023-05-10T14:21:07.812Z,16.47
2023-05-10T14:24:07.856Z,16.26
2023-05-10T14:27:07.827Z,16.16
2023-05-10T14:30:07.784Z,16.13
2023-05-10T14:33:07.847Z,16.14
2023-05-10T14:36:07.825Z,16.17
2023-05-10T14:39:07.858Z,16.20
2023-05-10T14:42:07.813Z,16.20
2023-05-10T14:45:07.861Z,16.13
2023-05-10T14:48:07.826Z,15.99
2023-05-10T14:51:07.793Z,15.92
2023-05-10T14:54:09.770Z,15.89
2023-05-10T14:57:10.034Z,15.82
2023-05-10T15:00:13.882Z,15.78
2023-05-10T15:03:15.226Z,15.89
2023-05-10T15:06:15.906Z,16.02
2023-05-10T15:09:15.933Z,16.05
2023-05-10T15:12:15.834Z,16.10
2023-05-10T15:15:16.094Z,16.15
2023-05-10T15:18:19.123Z,16.14
2023-05-10T15:21:18.848Z,16.13
2023-05-10T15:24:18.977Z,16.12
2023-05-10T15:27:18.905Z,16.09
2023-05-10T15:30:19.239Z,16.09
2023-05-10T15:33:19.166Z,16.07
2023-05-10T15:36:19.028Z,16.03
2023-05-10T15:39:19.186Z,15.95
2023-05-10T15:42:19.933Z,15.89
2023-05-10T15:45:20.343Z,15.77
2023-05-10T15:48:20.907Z,15.69
2023-05-10T15:51:22.795Z,15.65
2023-05-10T15:54:26.994Z,15.56
2023-05-10T15:57:28.070Z,15.43
2023-05-10T16:00:32.298Z,15.26
2023-05-10T16:03:37.637Z,15.15
2023-05-10T16:06:38.947Z,15.03
2023-05-10T16:09:40.382Z,14.87
2023-05-10T16:12:43.298Z,14.78
2023-05-10T16:15:37.975Z,14.77
2023-05-10T16:18:38.108Z,14.74
2023-05-10T16:21:40.987Z,14.71
2023-05-10T16:24:40.963Z,14.73
2023-05-10T16:27:41.561Z,14.70
2023-05-10T16:30:43.021Z,14.61
2023-05-10T16:33:42.970Z,14.51
2023-05-10T16:36:43.039Z,14.44
2023-05-10T16:39:43.003Z,14.42
2023-05-10T16:42:43.062Z,14.35
2023-05-10T16:45:45.246Z,14.20
2023-05-10T16:48:45.217Z,14.07
2023-05-10T16:51:44.998Z,13.94
2023-05-10T16:54:45.013Z,13.83
2023-05-10T16:57:46.107Z,13.71
2023-05-10T17:00:46.114Z,13.56
2023-05-10T17:03:46.258Z,13.42
2023-05-10T17:06:48.140Z,13.26
2023-05-10T17:09:49.057Z,13.14
2023-05-10T17:12:49.266Z,13.01
2023-05-10T17:15:49.223Z,12.83
2023-05-10T17:18:52.151Z,12.71
2023-05-10T17:21:54.246Z,12.60
2023-05-10T17:24:54.141Z,12.44
2023-05-10T17:27:55.142Z,12.28
2023-05-10T17:30:56.057Z,12.12
2023-05-10T17:33:56.156Z,11.99
2023-05-10T17:36:57.146Z,11.86
2023-05-10T17:39:59.874Z,11.74
2023-05-10T17:43:00.071Z,11.62
2023-05-10T17:46:02.701Z,11.53
2023-05-10T17:49:03.544Z,11.42
2023-05-10T17:52:04.426Z,11.33
2023-05-10T17:55:04.434Z,11.24
2023-05-10T17:58:08.399Z,11.14
2023-05-10T18:01:09.459Z,11.02
2023-05-10T18:04:09.460Z,10.92
2023-05-10T18:07:09.139Z,10.83
2023-05-10T18:10:09.143Z,10.75
2023-05-10T18:13:11.184Z,10.65
2023-05-10T18:16:12.175Z,10.55
2023-05-10T18:19:14.199Z,10.44
2023-05-10T18:22:14.259Z,10.35
2023-05-10T18:25:17.636Z,10.28
2023-05-10T18:28:18.126Z,10.21
2023-05-10T18:31:18.268Z,10.15
2023-05-10T18:34:18.196Z,10.07
2023-05-10T18:37:18.193Z,10.02
2023-05-10T18:40:20.209Z,9.96
2023-05-10T18:43:20.238Z,9.93
2023-05-10T18:46:20.196Z,9.89
2023-05-10T18:49:20.550Z,9.83
2023-05-10T18:52:22.233Z,9.76
2023-05-10T18:55:23.732Z,9.69
2023-05-10T18:58:26.292Z,9.59
2023-05-10T19:01:26.257Z,9.52
2023-05-10T19:04:26.499Z,9.44
2023-05-10T19:07:26.239Z,9.37
2023-05-10T19:10:26.298Z,9.29
2023-05-10T19:13:26.284Z,9.24
2023-05-10T19:16:29.440Z,9.17
2023-05-10T19:19:29.367Z,9.09
2023-05-10T19:25:35.244Z,8.98
2023-05-10T19:28:37.222Z,8.92
2023-05-10T19:31:37.608Z,8.88
2023-05-10T19:34:37.304Z,8.84
2023-05-10T19:37:38.498Z,8.83
2023-05-10T19:40:38.340Z,8.82
2023-05-10T19:43:43.303Z,8.78
2023-05-10T19:46:43.392Z,8.71
2023-05-10T19:49:44.643Z,8.64
2023-05-10T19:52:45.359Z,8.57
2023-05-10T19:55:46.358Z,8.53
2023-05-10T19:58:47.343Z,8.49
2023-05-10T20:01:47.427Z,8.45
2023-05-10T20:04:49.516Z,8.42
2023-05-10T20:07:50.772Z,8.40
2023-05-10T20:10:51.836Z,8.34
2023-05-10T20:13:52.431Z,8.28
2023-05-10T20:16:52.448Z,8.22
2023-05-10T20:19:54.321Z,8.17
2023-05-10T20:22:54.412Z,8.13
2023-05-10T20:25:57.442Z,8.08
2023-05-10T20:28:57.413Z,8.05
2023-05-10T20:31:57.461Z,8.01
2023-05-10T20:34:57.443Z,7.98
2023-05-10T20:37:57.465Z,7.94
2023-05-10T20:40:57.705Z,7.90
2023-05-10T20:43:58.715Z,7.86
2023-05-10T20:46:59.577Z,7.83
2023-05-10T20:50:00.432Z,7.79
2023-05-10T20:53:01.593Z,7.76
2023-05-10T20:56:02.428Z,7.72
2023-05-10T20:59:02.935Z,7.70
2023-05-10T21:02:03.497Z,7.68
2023-05-10T21:05:03.481Z,7.66
2023-05-10T21:08:05.745Z,7.63
2023-05-10T21:11:05.495Z,7.60
2023-05-10T21:14:05.797Z,7.59
2023-05-10T21:17:05.496Z,7.56
2023-05-10T21:20:05.501Z,7.53
2023-05-10T21:23:05.621Z,7.49
2023-05-10T21:26:07.528Z,7.45
2023-05-10T21:29:07.564Z,7.42
2023-05-10T21:32:07.664Z,7.39
2023-05-10T21:35:07.491Z,7.35
2023-05-10T21:38:07.471Z,7.33
2023-05-10T21:41:07.541Z,7.30
2023-05-10T21:44:07.464Z,7.29
2023-05-10T21:47:07.543Z,7.28
2023-05-10T21:50:07.548Z,7.24
2023-05-10T21:53:10.063Z,7.21
2023-05-10T21:56:10.509Z,7.16
2023-05-10T22:00:59.718Z,7.10
2023-05-10T22:04:00.690Z,7.05
2023-05-10T22:06:54.783Z,7.04
2023-05-10T22:09:56.797Z,7.03
2023-05-10T22:12:58.713Z,7.03
2023-05-10T22:16:01.728Z,7.02
2023-05-10T22:19:02.792Z,7.03
2023-05-10T22:22:04.922Z,7.01
2023-05-10T22:25:05.909Z,6.98
2023-05-10T22:28:06.692Z,6.94
2023-05-10T22:31:07.736Z,6.89
2023-05-10T22:34:10.938Z,6.88
2023-05-10T22:37:12.811Z,6.87
2023-05-10T22:40:13.752Z,6.87
2023-05-10T22:43:14.787Z,6.88
2023-05-10T22:46:15.804Z,6.88
2023-05-10T22:49:09.838Z,6.86
2023-05-10T22:52:10.745Z,6.83
2023-05-10T22:55:11.718Z,6.79
2023-05-10T22:58:12.807Z,6.74
2023-05-10T23:01:13.765Z,6.67
2023-05-10T23:04:14.796Z,6.63
2023-05-10T23:07:16.737Z,6.60
2023-05-10T23:10:18.216Z,6.61
2023-05-10T23:13:18.810Z,6.62
2023-05-10T23:16:19.846Z,6.63
2023-05-10T23:19:20.866Z,6.62
2023-05-10T23:22:21.803Z,6.57
2023-05-10T23:25:22.827Z,6.53
2023-05-10T23:28:23.833Z,6.48
2023-05-10T23:31:17.951Z,6.45
2023-05-10T23:34:19.828Z,6.44
2023-05-10T23:37:20.906Z,6.44
2023-05-10T23:40:21.901Z,6.46
2023-05-10T23:43:22.838Z,6.49
2023-05-10T23:46:23.906Z,6.55
2023-05-10T23:49:25.882Z,6.63
2023-05-10T23:52:29.848Z,6.68
2023-05-10T23:55:30.820Z,6.73
2023-05-10T23:58:32.035Z,6.76
